sensor_id;sensor_type;location;lat;lon;timestamp;temperature;humidity
47338;DHT22;33069;51.970;5.892;2022-08-21T00:01:42;16.80;83.80
47338;DHT22;33069;51.970;5.892;2022-08-21T00:04:09;16.80;83.50
47338;DHT22;33069;51.970;5.892;2022-08-21T00:06:36;16.80;83.40
47338;DHT22;33069;51.970;5.892;2022-08-21T00:09:03;16.90;83.50
47338;DHT22;33069;51.970;5.892;2022-08-21T00:11:30;16.90;83.50
47338;DHT22;33069;51.970;5.892;2022-08-21T00:13:55;16.90;83.80
47338;DHT22;33069;51.970;5.892;2022-08-21T00:16:21;16.70;84.10
47338;DHT22;33069;51.970;5.892;2022-08-21T00:18:48;16.70;84.60
47338;DHT22;33069;51.970;5.892;2022-08-21T00:21:15;16.50;84.70
47338;DHT22;33069;51.970;5.892;2022-08-21T00:23:41;16.50;85.00
47338;DHT22;33069;51.970;5.892;2022-08-21T00:26:07;16.40;85.10
47338;DHT22;33069;51.970;5.892;2022-08-21T00:28:33;16.30;85.40
47338;DHT22;33069;51.970;5.892;2022-08-21T00:30:59;16.40;85.60
47338;DHT22;33069;51.970;5.892;2022-08-21T00:33:25;16.40;85.50
47338;DHT22;33069;51.970;5.892;2022-08-21T00:35:52;16.40;85.60
47338;DHT22;33069;51.970;5.892;2022-08-21T00:38:18;16.40;85.80
47338;DHT22;33069;51.970;5.892;2022-08-21T00:40:51;16.30;85.70
47338;DHT22;33069;51.970;5.892;2022-08-21T00:43:20;16.30;85.80
47338;DHT22;33069;51.970;5.892;2022-08-21T00:45:46;16.10;86.00
47338;DHT22;33069;51.970;5.892;2022-08-21T00:48:12;16.00;86.40
47338;DHT22;33069;51.970;5.892;2022-08-21T00:50:44;15.90;86.50
47338;DHT22;33069;51.970;5.892;2022-08-21T00:53:12;15.90;86.60
47338;DHT22;33069;51.970;5.892;2022-08-21T00:55:39;15.90;86.70
47338;DHT22;33069;51.970;5.892;2022-08-21T00:58:08;15.80;86.30
47338;DHT22;33069;51.970;5.892;2022-08-21T01:00:37;15.90;86.30
47338;DHT22;33069;51.970;5.892;2022-08-21T01:03:08;15.90;86.30
47338;DHT22;33069;51.970;5.892;2022-08-21T01:05:35;16.00;86.30
47338;DHT22;33069;51.970;5.892;2022-08-21T01:08:01;16.00;86.20
47338;DHT22;33069;51.970;5.892;2022-08-21T01:10:28;16.10;86.00
47338;DHT22;33069;51.970;5.892;2022-08-21T01:12:55;16.00;85.90
47338;DHT22;33069;51.970;5.892;2022-08-21T01:15:26;16.00;85.90
47338;DHT22;33069;51.970;5.892;2022-08-21T01:17:54;16.10;86.00
47338;DHT22;33069;51.970;5.892;2022-08-21T01:20:19;16.00;85.90
47338;DHT22;33069;51.970;5.892;2022-08-21T01:22:45;16.00;86.10
47338;DHT22;33069;51.970;5.892;2022-08-21T01:25:15;16.00;85.90
47338;DHT22;33069;51.970;5.892;2022-08-21T01:27:41;16.10;85.90
47338;DHT22;33069;51.970;5.892;2022-08-21T01:30:13;16.10;85.50
47338;DHT22;33069;51.970;5.892;2022-08-21T01:32:40;16.00;85.30
47338;DHT22;33069;51.970;5.892;2022-08-21T01:35:07;16.00;85.50
47338;DHT22;33069;51.970;5.892;2022-08-21T01:37:34;15.90;85.50
47338;DHT22;33069;51.970;5.892;2022-08-21T01:40:00;15.90;85.40
47338;DHT22;33069;51.970;5.892;2022-08-21T01:42:26;15.90;85.20
47338;DHT22;33069;51.970;5.892;2022-08-21T01:44:52;15.90;85.10
47338;DHT22;33069;51.970;5.892;2022-08-21T01:47:17;15.90;84.80
47338;DHT22;33069;51.970;5.892;2022-08-21T01:49:44;15.80;84.70
47338;DHT22;33069;51.970;5.892;2022-08-21T01:52:11;15.80;84.60
47338;DHT22;33069;51.970;5.892;2022-08-21T01:54:38;15.80;84.20
47338;DHT22;33069;51.970;5.892;2022-08-21T01:57:04;15.80;84.00
47338;DHT22;33069;51.970;5.892;2022-08-21T01:59:30;15.70;83.80
47338;DHT22;33069;51.970;5.892;2022-08-21T02:01:56;15.70;83.80
47338;DHT22;33069;51.970;5.892;2022-08-21T02:04:23;15.70;83.40
47338;DHT22;33069;51.970;5.892;2022-08-21T02:06:49;15.70;83.40
47338;DHT22;33069;51.970;5.892;2022-08-21T02:09:15;15.70;83.30
47338;DHT22;33069;51.970;5.892;2022-08-21T02:11:41;15.70;83.40
47338;DHT22;33069;51.970;5.892;2022-08-21T02:14:09;15.80;83.50
47338;DHT22;33069;51.970;5.892;2022-08-21T02:16:37;15.70;83.40
47338;DHT22;33069;51.970;5.892;2022-08-21T02:19:02;15.70;82.90
47338;DHT22;33069;51.970;5.892;2022-08-21T02:21:28;15.70;82.60
47338;DHT22;33069;51.970;5.892;2022-08-21T02:23:54;15.70;82.70
47338;DHT22;33069;51.970;5.892;2022-08-21T02:26:20;15.70;82.50
47338;DHT22;33069;51.970;5.892;2022-08-21T02:28:45;15.70;82.60
47338;DHT22;33069;51.970;5.892;2022-08-21T02:31:11;15.70;82.40
47338;DHT22;33069;51.970;5.892;2022-08-21T02:33:37;15.60;82.50
47338;DHT22;33069;51.970;5.892;2022-08-21T02:36:03;15.60;82.80
47338;DHT22;33069;51.970;5.892;2022-08-21T02:38:31;15.40;83.00
47338;DHT22;33069;51.970;5.892;2022-08-21T02:41:04;15.30;83.70
47338;DHT22;33069;51.970;5.892;2022-08-21T02:43:30;15.20;84.40
47338;DHT22;33069;51.970;5.892;2022-08-21T02:45:57;15.30;84.80
47338;DHT22;33069;51.970;5.892;2022-08-21T02:48:28;15.30;84.70
47338;DHT22;33069;51.970;5.892;2022-08-21T02:51:08;15.30;84.70
47338;DHT22;33069;51.970;5.892;2022-08-21T02:53:34;15.20;85.00
47338;DHT22;33069;51.970;5.892;2022-08-21T02:56:03;15.20;84.90
47338;DHT22;33069;51.970;5.892;2022-08-21T02:58:35;15.10;85.10
47338;DHT22;33069;51.970;5.892;2022-08-21T03:01:02;15.00;85.40
47338;DHT22;33069;51.970;5.892;2022-08-21T03:03:29;15.00;85.80
47338;DHT22;33069;51.970;5.892;2022-08-21T03:05:55;15.00;86.00
47338;DHT22;33069;51.970;5.892;2022-08-21T03:08:21;15.10;85.90
47338;DHT22;33069;51.970;5.892;2022-08-21T03:10:51;15.00;85.90
47338;DHT22;33069;51.970;5.892;2022-08-21T03:13:18;15.10;85.90
47338;DHT22;33069;51.970;5.892;2022-08-21T03:15:46;15.10;85.70
47338;DHT22;33069;51.970;5.892;2022-08-21T03:18:12;15.10;85.70
47338;DHT22;33069;51.970;5.892;2022-08-21T03:20:39;15.00;85.60
47338;DHT22;33069;51.970;5.892;2022-08-21T03:23:06;15.00;85.80
47338;DHT22;33069;51.970;5.892;2022-08-21T03:25:33;15.00;85.90
47338;DHT22;33069;51.970;5.892;2022-08-21T03:28:00;14.90;86.00
47338;DHT22;33069;51.970;5.892;2022-08-21T03:30:27;14.90;86.00
47338;DHT22;33069;51.970;5.892;2022-08-21T03:32:53;14.90;86.10
47338;DHT22;33069;51.970;5.892;2022-08-21T03:35:20;14.80;86.10
47338;DHT22;33069;51.970;5.892;2022-08-21T03:37:46;14.80;86.10
47338;DHT22;33069;51.970;5.892;2022-08-21T03:40:14;14.80;86.20
47338;DHT22;33069;51.970;5.892;2022-08-21T03:42:40;14.80;86.20
47338;DHT22;33069;51.970;5.892;2022-08-21T03:45:06;14.80;86.50
47338;DHT22;33069;51.970;5.892;2022-08-21T03:47:32;14.80;86.10
47338;DHT22;33069;51.970;5.892;2022-08-21T03:49:58;14.90;86.20
47338;DHT22;33069;51.970;5.892;2022-08-21T03:52:25;15.00;85.50
47338;DHT22;33069;51.970;5.892;2022-08-21T03:54:50;15.00;85.20
47338;DHT22;33069;51.970;5.892;2022-08-21T03:57:16;15.10;85.00
47338;DHT22;33069;51.970;5.892;2022-08-21T03:59:42;15.00;84.70
47338;DHT22;33069;51.970;5.892;2022-08-21T04:02:08;14.90;84.90
47338;DHT22;33069;51.970;5.892;2022-08-21T04:04:35;14.80;85.00
47338;DHT22;33069;51.970;5.892;2022-08-21T04:07:01;14.80;85.30
47338;DHT22;33069;51.970;5.892;2022-08-21T04:09:27;14.80;85.50
47338;DHT22;33069;51.970;5.892;2022-08-21T04:11:53;14.80;85.40
47338;DHT22;33069;51.970;5.892;2022-08-21T04:14:19;14.70;85.50
47338;DHT22;33069;51.970;5.892;2022-08-21T04:16:45;14.90;85.40
47338;DHT22;33069;51.970;5.892;2022-08-21T04:19:12;14.70;85.30
47338;DHT22;33069;51.970;5.892;2022-08-21T04:21:42;14.60;85.80
47338;DHT22;33069;51.970;5.892;2022-08-21T04:24:09;14.50;86.10
47338;DHT22;33069;51.970;5.892;2022-08-21T04:26:36;14.50;86.40
47338;DHT22;33069;51.970;5.892;2022-08-21T04:29:03;14.50;86.60
47338;DHT22;33069;51.970;5.892;2022-08-21T04:31:34;14.50;86.70
47338;DHT22;33069;51.970;5.892;2022-08-21T04:34:02;14.50;86.80
47338;DHT22;33069;51.970;5.892;2022-08-21T04:36:28;14.40;86.90
47338;DHT22;33069;51.970;5.892;2022-08-21T04:38:54;14.50;87.10
47338;DHT22;33069;51.970;5.892;2022-08-21T04:41:20;14.50;87.00
47338;DHT22;33069;51.970;5.892;2022-08-21T04:43:45;14.40;87.10
47338;DHT22;33069;51.970;5.892;2022-08-21T04:46:12;14.20;87.30
47338;DHT22;33069;51.970;5.892;2022-08-21T04:48:37;14.20;87.70
47338;DHT22;33069;51.970;5.892;2022-08-21T04:51:11;14.30;87.90
47338;DHT22;33069;51.970;5.892;2022-08-21T04:53:55;14.40;87.90
47338;DHT22;33069;51.970;5.892;2022-08-21T04:56:34;14.50;87.80
47338;DHT22;33069;51.970;5.892;2022-08-21T04:59:04;14.50;87.80
47338;DHT22;33069;51.970;5.892;2022-08-21T05:01:34;14.50;87.70
47338;DHT22;33069;51.970;5.892;2022-08-21T05:04:02;14.60;87.70
47338;DHT22;33069;51.970;5.892;2022-08-21T05:06:33;14.50;87.60
47338;DHT22;33069;51.970;5.892;2022-08-21T05:09:00;14.50;87.60
47338;DHT22;33069;51.970;5.892;2022-08-21T05:11:28;14.60;87.60
47338;DHT22;33069;51.970;5.892;2022-08-21T05:13:54;14.70;87.60
47338;DHT22;33069;51.970;5.892;2022-08-21T05:16:19;14.70;87.50
47338;DHT22;33069;51.970;5.892;2022-08-21T05:18:45;14.80;87.50
47338;DHT22;33069;51.970;5.892;2022-08-21T05:21:11;14.90;87.10
47338;DHT22;33069;51.970;5.892;2022-08-21T05:23:36;15.10;86.40
47338;DHT22;33069;51.970;5.892;2022-08-21T05:26:02;15.10;85.60
47338;DHT22;33069;51.970;5.892;2022-08-21T05:28:30;15.20;85.30
47338;DHT22;33069;51.970;5.892;2022-08-21T05:30:56;15.30;84.50
47338;DHT22;33069;51.970;5.892;2022-08-21T05:33:22;15.50;83.80
47338;DHT22;33069;51.970;5.892;2022-08-21T05:35:50;15.50;83.50
47338;DHT22;33069;51.970;5.892;2022-08-21T05:38:17;15.50;83.20
47338;DHT22;33069;51.970;5.892;2022-08-21T05:40:44;15.80;82.20
47338;DHT22;33069;51.970;5.892;2022-08-21T05:43:09;16.20;79.70
47338;DHT22;33069;51.970;5.892;2022-08-21T05:45:35;16.10;79.30
47338;DHT22;33069;51.970;5.892;2022-08-21T05:48:09;15.70;80.80
47338;DHT22;33069;51.970;5.892;2022-08-21T05:50:35;15.70;81.70
47338;DHT22;33069;51.970;5.892;2022-08-21T05:53:03;15.90;81.40
47338;DHT22;33069;51.970;5.892;2022-08-21T05:55:28;16.00;80.90
47338;DHT22;33069;51.970;5.892;2022-08-21T05:57:54;15.90;81.30
47338;DHT22;33069;51.970;5.892;2022-08-21T06:00:20;16.00;81.50
47338;DHT22;33069;51.970;5.892;2022-08-21T06:02:49;16.10;80.50
47338;DHT22;33069;51.970;5.892;2022-08-21T06:05:17;16.00;81.40
47338;DHT22;33069;51.970;5.892;2022-08-21T06:07:43;16.20;79.80
47338;DHT22;33069;51.970;5.892;2022-08-21T06:10:09;16.00;80.40
47338;DHT22;33069;51.970;5.892;2022-08-21T06:12:34;16.30;80.10
47338;DHT22;33069;51.970;5.892;2022-08-21T06:15:00;16.00;79.70
47338;DHT22;33069;51.970;5.892;2022-08-21T06:17:26;16.40;79.00
47338;DHT22;33069;51.970;5.892;2022-08-21T06:19:52;16.40;78.20
47338;DHT22;33069;51.970;5.892;2022-08-21T06:22:19;15.90;79.50
47338;DHT22;33069;51.970;5.892;2022-08-21T06:24:45;16.10;80.00
47338;DHT22;33069;51.970;5.892;2022-08-21T06:27:11;16.30;78.90
47338;DHT22;33069;51.970;5.892;2022-08-21T06:29:37;16.30;79.20
47338;DHT22;33069;51.970;5.892;2022-08-21T06:32:04;16.50;79.10
47338;DHT22;33069;51.970;5.892;2022-08-21T06:34:35;16.70;78.10
47338;DHT22;33069;51.970;5.892;2022-08-21T06:37:01;16.50;79.70
47338;DHT22;33069;51.970;5.892;2022-08-21T06:39:27;16.50;79.50
47338;DHT22;33069;51.970;5.892;2022-08-21T06:41:52;16.70;79.00
47338;DHT22;33069;51.970;5.892;2022-08-21T06:44:18;16.80;78.00
47338;DHT22;33069;51.970;5.892;2022-08-21T06:46:44;16.80;78.40
47338;DHT22;33069;51.970;5.892;2022-08-21T06:49:10;16.80;78.90
47338;DHT22;33069;51.970;5.892;2022-08-21T06:51:35;16.80;78.50
47338;DHT22;33069;51.970;5.892;2022-08-21T06:54:01;16.70;79.00
47338;DHT22;33069;51.970;5.892;2022-08-21T06:56:26;17.00;78.70
47338;DHT22;33069;51.970;5.892;2022-08-21T06:58:52;17.10;78.00
47338;DHT22;33069;51.970;5.892;2022-08-21T07:01:23;17.10;77.20
47338;DHT22;33069;51.970;5.892;2022-08-21T07:03:50;17.00;78.10
47338;DHT22;33069;51.970;5.892;2022-08-21T07:06:16;17.10;77.80
47338;DHT22;33069;51.970;5.892;2022-08-21T07:08:42;17.20;77.40
47338;DHT22;33069;51.970;5.892;2022-08-21T07:11:17;17.20;77.30
47338;DHT22;33069;51.970;5.892;2022-08-21T07:13:44;17.30;77.00
47338;DHT22;33069;51.970;5.892;2022-08-21T07:16:10;17.50;76.60
47338;DHT22;33069;51.970;5.892;2022-08-21T07:18:36;17.50;77.00
47338;DHT22;33069;51.970;5.892;2022-08-21T07:21:03;17.40;77.00
47338;DHT22;33069;51.970;5.892;2022-08-21T07:23:48;17.50;77.40
47338;DHT22;33069;51.970;5.892;2022-08-21T07:26:16;17.50;78.50
47338;DHT22;33069;51.970;5.892;2022-08-21T07:28:43;17.80;76.30
47338;DHT22;33069;51.970;5.892;2022-08-21T07:31:10;18.00;76.20
47338;DHT22;33069;51.970;5.892;2022-08-21T07:33:39;18.00;75.40
47338;DHT22;33069;51.970;5.892;2022-08-21T07:36:06;18.00;75.80
47338;DHT22;33069;51.970;5.892;2022-08-21T07:38:32;18.10;76.20
47338;DHT22;33069;51.970;5.892;2022-08-21T07:40:59;18.30;75.80
47338;DHT22;33069;51.970;5.892;2022-08-21T07:43:26;18.00;75.20
47338;DHT22;33069;51.970;5.892;2022-08-21T07:45:52;18.20;76.10
47338;DHT22;33069;51.970;5.892;2022-08-21T07:48:19;18.30;75.10
47338;DHT22;33069;51.970;5.892;2022-08-21T07:50:45;18.20;75.90
47338;DHT22;33069;51.970;5.892;2022-08-21T07:53:11;18.40;75.60
47338;DHT22;33069;51.970;5.892;2022-08-21T07:55:37;18.50;75.00
47338;DHT22;33069;51.970;5.892;2022-08-21T07:58:02;18.70;74.80
47338;DHT22;33069;51.970;5.892;2022-08-21T08:00:30;18.80;74.50
47338;DHT22;33069;51.970;5.892;2022-08-21T08:02:57;18.80;74.70
47338;DHT22;33069;51.970;5.892;2022-08-21T08:05:27;18.80;75.90
47338;DHT22;33069;51.970;5.892;2022-08-21T08:07:54;19.10;74.30
47338;DHT22;33069;51.970;5.892;2022-08-21T08:10:20;18.70;75.80
47338;DHT22;33069;51.970;5.892;2022-08-21T08:12:47;18.50;77.10
47338;DHT22;33069;51.970;5.892;2022-08-21T08:15:17;18.80;75.90
47338;DHT22;33069;51.970;5.892;2022-08-21T08:17:43;18.70;77.10
47338;DHT22;33069;51.970;5.892;2022-08-21T08:20:10;19.20;75.80
47338;DHT22;33069;51.970;5.892;2022-08-21T08:22:38;19.30;75.40
47338;DHT22;33069;51.970;5.892;2022-08-21T08:25:06;19.40;74.40
47338;DHT22;33069;51.970;5.892;2022-08-21T08:27:32;19.40;74.90
47338;DHT22;33069;51.970;5.892;2022-08-21T08:29:58;19.50;73.80
47338;DHT22;33069;51.970;5.892;2022-08-21T08:32:24;19.40;74.70
47338;DHT22;33069;51.970;5.892;2022-08-21T08:34:49;19.60;74.10
47338;DHT22;33069;51.970;5.892;2022-08-21T08:37:18;19.60;74.30
47338;DHT22;33069;51.970;5.892;2022-08-21T08:39:44;19.80;73.40
47338;DHT22;33069;51.970;5.892;2022-08-21T08:42:25;19.70;73.90
47338;DHT22;33069;51.970;5.892;2022-08-21T08:45:01;19.90;74.30
47338;DHT22;33069;51.970;5.892;2022-08-21T08:47:30;20.40;72.00
47338;DHT22;33069;51.970;5.892;2022-08-21T08:52:31;20.20;70.60
47338;DHT22;33069;51.970;5.892;2022-08-21T08:57:36;20.10;70.40
47338;DHT22;33069;51.970;5.892;2022-08-21T09:00:11;20.10;70.80
47338;DHT22;33069;51.970;5.892;2022-08-21T09:02:40;20.10;71.30
47338;DHT22;33069;51.970;5.892;2022-08-21T09:05:07;20.50;70.20
47338;DHT22;33069;51.970;5.892;2022-08-21T09:07:59;20.60;70.10
47338;DHT22;33069;51.970;5.892;2022-08-21T09:10:44;20.80;69.20
47338;DHT22;33069;51.970;5.892;2022-08-21T09:13:44;20.90;68.70
47338;DHT22;33069;51.970;5.892;2022-08-21T09:21:58;20.60;67.80
47338;DHT22;33069;51.970;5.892;2022-08-21T09:27:20;21.10;66.50
47338;DHT22;33069;51.970;5.892;2022-08-21T09:29:50;20.90;63.70
47338;DHT22;33069;51.970;5.892;2022-08-21T09:32:28;20.80;65.90
47338;DHT22;33069;51.970;5.892;2022-08-21T09:35:08;21.00;64.60
47338;DHT22;33069;51.970;5.892;2022-08-21T09:40:38;21.40;64.50
47338;DHT22;33069;51.970;5.892;2022-08-21T09:45:37;21.70;63.40
47338;DHT22;33069;51.970;5.892;2022-08-21T09:48:24;21.40;64.30
47338;DHT22;33069;51.970;5.892;2022-08-21T09:50:51;21.60;64.10
47338;DHT22;33069;51.970;5.892;2022-08-21T09:53:24;21.80;63.10
47338;DHT22;33069;51.970;5.892;2022-08-21T09:55:54;22.20;61.30
47338;DHT22;33069;51.970;5.892;2022-08-21T09:58:42;22.30;61.20
47338;DHT22;33069;51.970;5.892;2022-08-21T10:01:14;21.80;62.60
47338;DHT22;33069;51.970;5.892;2022-08-21T10:03:40;22.20;59.80
47338;DHT22;33069;51.970;5.892;2022-08-21T10:06:09;22.20;60.70
47338;DHT22;33069;51.970;5.892;2022-08-21T10:08:40;22.00;59.70
47338;DHT22;33069;51.970;5.892;2022-08-21T10:11:09;22.00;60.20
47338;DHT22;33069;51.970;5.892;2022-08-21T10:22:26;22.30;57.00
47338;DHT22;33069;51.970;5.892;2022-08-21T10:30:38;23.20;54.60
47338;DHT22;33069;51.970;5.892;2022-08-21T10:33:28;23.10;55.10
47338;DHT22;33069;51.970;5.892;2022-08-21T10:38:45;22.80;56.50
47338;DHT22;33069;51.970;5.892;2022-08-21T10:46:58;23.00;53.70
47338;DHT22;33069;51.970;5.892;2022-08-21T10:55:08;23.30;52.50
47338;DHT22;33069;51.970;5.892;2022-08-21T10:57:40;23.50;53.00
47338;DHT22;33069;51.970;5.892;2022-08-21T11:00:14;23.80;53.50
47338;DHT22;33069;51.970;5.892;2022-08-21T11:03:02;23.00;55.50
47338;DHT22;33069;51.970;5.892;2022-08-21T11:05:54;22.80;56.40
47338;DHT22;33069;51.970;5.892;2022-08-21T11:08:24;23.30;54.30
47338;DHT22;33069;51.970;5.892;2022-08-21T11:11:06;23.50;53.60
47338;DHT22;33069;51.970;5.892;2022-08-21T11:13:47;23.70;53.70
47338;DHT22;33069;51.970;5.892;2022-08-21T11:16:23;23.40;54.00
47338;DHT22;33069;51.970;5.892;2022-08-21T11:19:00;23.50;54.00
47338;DHT22;33069;51.970;5.892;2022-08-21T11:29:48;22.80;55.30
47338;DHT22;33069;51.970;5.892;2022-08-21T11:37:41;23.10;54.20
47338;DHT22;33069;51.970;5.892;2022-08-21T11:40:16;23.40;52.60
47338;DHT22;33069;51.970;5.892;2022-08-21T11:45:44;23.70;51.90
47338;DHT22;33069;51.970;5.892;2022-08-21T11:50:44;23.80;51.60
47338;DHT22;33069;51.970;5.892;2022-08-21T11:53:25;23.70;51.60
47338;DHT22;33069;51.970;5.892;2022-08-21T11:56:11;24.00;52.30
47338;DHT22;33069;51.970;5.892;2022-08-21T11:58:45;24.20;51.20
47338;DHT22;33069;51.970;5.892;2022-08-21T12:01:20;24.30;51.40
47338;DHT22;33069;51.970;5.892;2022-08-21T12:03:59;24.50;49.90
47338;DHT22;33069;51.970;5.892;2022-08-21T12:06:37;24.80;49.30
47338;DHT22;33069;51.970;5.892;2022-08-21T12:09:10;24.70;49.50
47338;DHT22;33069;51.970;5.892;2022-08-21T12:11:51;24.80;49.90
47338;DHT22;33069;51.970;5.892;2022-08-21T12:14:39;24.60;48.80
47338;DHT22;33069;51.970;5.892;2022-08-21T12:17:08;24.60;47.00
47338;DHT22;33069;51.970;5.892;2022-08-21T12:19:42;24.70;48.10
47338;DHT22;33069;51.970;5.892;2022-08-21T12:22:13;24.60;49.50
47338;DHT22;33069;51.970;5.892;2022-08-21T12:24:45;24.90;48.90
47338;DHT22;33069;51.970;5.892;2022-08-21T12:27:29;25.20;49.30
47338;DHT22;33069;51.970;5.892;2022-08-21T12:30:04;25.00;47.90
47338;DHT22;33069;51.970;5.892;2022-08-21T12:32:43;25.10;47.70
47338;DHT22;33069;51.970;5.892;2022-08-21T12:37:48;24.80;47.70
47338;DHT22;33069;51.970;5.892;2022-08-21T12:40:21;24.80;48.00
47338;DHT22;33069;51.970;5.892;2022-08-21T12:42:50;24.80;49.60
47338;DHT22;33069;51.970;5.892;2022-08-21T12:45:28;24.70;50.60
47338;DHT22;33069;51.970;5.892;2022-08-21T12:53:56;25.10;46.90
47338;DHT22;33069;51.970;5.892;2022-08-21T12:56:25;25.60;45.60
47338;DHT22;33069;51.970;5.892;2022-08-21T12:59:03;25.10;47.80
47338;DHT22;33069;51.970;5.892;2022-08-21T13:01:36;25.40;46.90
47338;DHT22;33069;51.970;5.892;2022-08-21T13:04:09;25.40;47.70
47338;DHT22;33069;51.970;5.892;2022-08-21T13:06:50;25.30;47.30
47338;DHT22;33069;51.970;5.892;2022-08-21T13:09:20;25.60;46.70
47338;DHT22;33069;51.970;5.892;2022-08-21T13:11:48;25.50;44.70
47338;DHT22;33069;51.970;5.892;2022-08-21T13:14:25;25.60;43.80
47338;DHT22;33069;51.970;5.892;2022-08-21T13:16:58;25.50;45.20
47338;DHT22;33069;51.970;5.892;2022-08-21T13:19:24;25.40;45.80
47338;DHT22;33069;51.970;5.892;2022-08-21T13:21:51;25.50;45.70
47338;DHT22;33069;51.970;5.892;2022-08-21T13:24:25;26.00;44.00
47338;DHT22;33069;51.970;5.892;2022-08-21T13:26:51;26.10;42.20
47338;DHT22;33069;51.970;5.892;2022-08-21T13:29:21;26.20;41.70
47338;DHT22;33069;51.970;5.892;2022-08-21T13:31:55;25.70;43.90
47338;DHT22;33069;51.970;5.892;2022-08-21T13:34:24;26.20;43.50
47338;DHT22;33069;51.970;5.892;2022-08-21T13:36:54;26.60;42.20
47338;DHT22;33069;51.970;5.892;2022-08-21T13:39:21;25.40;46.10
47338;DHT22;33069;51.970;5.892;2022-08-21T13:41:51;25.90;43.80
47338;DHT22;33069;51.970;5.892;2022-08-21T13:44:22;26.00;44.10
47338;DHT22;33069;51.970;5.892;2022-08-21T13:46:53;26.00;44.30
47338;DHT22;33069;51.970;5.892;2022-08-21T13:49:25;26.30;43.30
47338;DHT22;33069;51.970;5.892;2022-08-21T13:51:51;26.40;43.80
47338;DHT22;33069;51.970;5.892;2022-08-21T13:54:34;26.60;42.50
47338;DHT22;33069;51.970;5.892;2022-08-21T13:57:00;26.00;42.90
47338;DHT22;33069;51.970;5.892;2022-08-21T13:59:28;26.30;42.80
47338;DHT22;33069;51.970;5.892;2022-08-21T14:02:10;26.40;43.40
47338;DHT22;33069;51.970;5.892;2022-08-21T14:04:58;26.50;41.50
47338;DHT22;33069;51.970;5.892;2022-08-21T14:07:45;25.60;44.00
47338;DHT22;33069;51.970;5.892;2022-08-21T14:10:18;26.10;44.20
47338;DHT22;33069;51.970;5.892;2022-08-21T14:12:53;26.60;43.60
47338;DHT22;33069;51.970;5.892;2022-08-21T14:15:28;27.00;42.10
47338;DHT22;33069;51.970;5.892;2022-08-21T14:17:54;26.80;42.50
47338;DHT22;33069;51.970;5.892;2022-08-21T14:20:32;27.10;41.80
47338;DHT22;33069;51.970;5.892;2022-08-21T14:22:59;27.20;42.70
47338;DHT22;33069;51.970;5.892;2022-08-21T14:30:38;27.10;40.90
47338;DHT22;33069;51.970;5.892;2022-08-21T14:33:09;27.40;40.40
47338;DHT22;33069;51.970;5.892;2022-08-21T14:35:35;27.30;41.30
47338;DHT22;33069;51.970;5.892;2022-08-21T14:38:01;26.70;42.40
47338;DHT22;33069;51.970;5.892;2022-08-21T14:40:27;27.00;43.20
47338;DHT22;33069;51.970;5.892;2022-08-21T14:42:53;27.10;41.70
47338;DHT22;33069;51.970;5.892;2022-08-21T14:45:25;27.30;42.50
47338;DHT22;33069;51.970;5.892;2022-08-21T14:47:52;26.40;43.90
47338;DHT22;33069;51.970;5.892;2022-08-21T14:50:18;27.20;42.30
47338;DHT22;33069;51.970;5.892;2022-08-21T14:52:44;27.10;42.40
47338;DHT22;33069;51.970;5.892;2022-08-21T14:55:12;27.30;41.70
47338;DHT22;33069;51.970;5.892;2022-08-21T14:57:41;27.20;41.90
47338;DHT22;33069;51.970;5.892;2022-08-21T15:00:09;27.30;41.70
47338;DHT22;33069;51.970;5.892;2022-08-21T15:02:35;27.30;42.40
47338;DHT22;33069;51.970;5.892;2022-08-21T15:05:01;27.20;42.90
47338;DHT22;33069;51.970;5.892;2022-08-21T15:07:27;26.70;44.30
47338;DHT22;33069;51.970;5.892;2022-08-21T15:09:53;27.10;41.00
47338;DHT22;33069;51.970;5.892;2022-08-21T15:12:18;27.00;41.20
47338;DHT22;33069;51.970;5.892;2022-08-21T15:14:44;27.30;41.00
47338;DHT22;33069;51.970;5.892;2022-08-21T15:17:10;27.30;41.20
47338;DHT22;33069;51.970;5.892;2022-08-21T15:19:37;27.50;40.30
47338;DHT22;33069;51.970;5.892;2022-08-21T15:22:03;27.70;40.80
47338;DHT22;33069;51.970;5.892;2022-08-21T15:24:30;27.80;38.60
47338;DHT22;33069;51.970;5.892;2022-08-21T15:26:56;27.30;38.80
47338;DHT22;33069;51.970;5.892;2022-08-21T15:29:24;26.60;41.50
47338;DHT22;33069;51.970;5.892;2022-08-21T15:31:58;26.80;40.80
47338;DHT22;33069;51.970;5.892;2022-08-21T15:34:26;26.90;40.50
47338;DHT22;33069;51.970;5.892;2022-08-21T15:36:52;26.60;41.50
47338;DHT22;33069;51.970;5.892;2022-08-21T15:39:18;25.90;43.30
47338;DHT22;33069;51.970;5.892;2022-08-21T15:41:44;25.40;43.50
47338;DHT22;33069;51.970;5.892;2022-08-21T15:44:11;25.50;44.30
47338;DHT22;33069;51.970;5.892;2022-08-21T15:46:38;25.50;44.20
47338;DHT22;33069;51.970;5.892;2022-08-21T15:49:04;25.60;44.60
47338;DHT22;33069;51.970;5.892;2022-08-21T15:51:30;24.80;46.40
47338;DHT22;33069;51.970;5.892;2022-08-21T15:53:56;24.90;45.90
47338;DHT22;33069;51.970;5.892;2022-08-21T15:56:27;24.50;47.00
47338;DHT22;33069;51.970;5.892;2022-08-21T15:58:59;24.60;47.40
47338;DHT22;33069;51.970;5.892;2022-08-21T16:01:26;24.80;47.20
47338;DHT22;33069;51.970;5.892;2022-08-21T16:03:53;24.10;48.70
47338;DHT22;33069;51.970;5.892;2022-08-21T16:06:20;24.50;47.40
47338;DHT22;33069;51.970;5.892;2022-08-21T16:08:46;24.30;48.10
47338;DHT22;33069;51.970;5.892;2022-08-21T16:11:13;24.30;48.10
47338;DHT22;33069;51.970;5.892;2022-08-21T16:13:41;24.10;48.90
47338;DHT22;33069;51.970;5.892;2022-08-21T16:16:13;23.90;49.90
47338;DHT22;33069;51.970;5.892;2022-08-21T16:18:40;24.30;49.10
47338;DHT22;33069;51.970;5.892;2022-08-21T16:21:06;23.70;51.30
47338;DHT22;33069;51.970;5.892;2022-08-21T16:23:33;24.10;49.50
47338;DHT22;33069;51.970;5.892;2022-08-21T16:26:04;23.80;49.10
47338;DHT22;33069;51.970;5.892;2022-08-21T16:28:31;23.40;50.70
47338;DHT22;33069;51.970;5.892;2022-08-21T16:30:58;23.80;49.30
47338;DHT22;33069;51.970;5.892;2022-08-21T16:33:36;23.90;48.90
47338;DHT22;33069;51.970;5.892;2022-08-21T16:36:04;23.90;49.20
47338;DHT22;33069;51.970;5.892;2022-08-21T16:38:31;23.30;49.40
47338;DHT22;33069;51.970;5.892;2022-08-21T16:41:06;23.80;49.20
47338;DHT22;33069;51.970;5.892;2022-08-21T16:43:33;23.70;50.90
47338;DHT22;33069;51.970;5.892;2022-08-21T16:45:59;23.30;51.20
47338;DHT22;33069;51.970;5.892;2022-08-21T16:48:26;23.20;51.60
47338;DHT22;33069;51.970;5.892;2022-08-21T16:50:55;23.00;52.80
47338;DHT22;33069;51.970;5.892;2022-08-21T16:53:21;22.90;53.80
47338;DHT22;33069;51.970;5.892;2022-08-21T16:55:46;23.20;51.80
47338;DHT22;33069;51.970;5.892;2022-08-21T17:00:50;23.50;52.90
47338;DHT22;33069;51.970;5.892;2022-08-21T17:03:18;23.40;53.90
47338;DHT22;33069;51.970;5.892;2022-08-21T17:05:46;23.10;55.00